createdAt,value
2023-04-11T00:01:14.748Z,8.92
2023-04-11T00:03:41.501Z,8.91
2023-04-11T00:06:08.561Z,8.90
2023-04-11T00:08:35.303Z,8.95
2023-04-11T00:11:01.942Z,8.83
2023-04-11T00:13:28.506Z,8.97
2023-04-11T00:15:55.772Z,9.04
2023-04-11T00:18:22.903Z,9.03
2023-04-11T00:20:49.492Z,9.03
2023-04-11T00:23:16.162Z,9.03
2023-04-11T00:25:42.779Z,9.03
2023-04-11T00:28:10.508Z,9.03
2023-04-11T00:30:37.126Z,9.03
2023-04-11T00:33:04.138Z,9.07
2023-04-11T00:35:34.576Z,9.09
2023-04-11T00:38:02.301Z,9.07
2023-04-11T00:40:29.346Z,9.05
2023-04-11T00:42:56.789Z,9.07
2023-04-11T00:45:23.292Z,9.00
2023-04-11T00:47:50.715Z,8.99
2023-04-11T00:50:17.993Z,8.97
2023-04-11T00:52:46.736Z,8.82
2023-04-11T00:55:14.160Z,8.95
2023-04-11T00:57:42.108Z,9.01
2023-04-11T01:00:12.034Z,8.99
2023-04-11T01:02:43.241Z,9.07
2023-04-11T01:05:12.089Z,8.99
2023-04-11T01:07:41.432Z,9.03
2023-04-11T01:10:08.949Z,9.03
2023-04-11T01:12:36.922Z,8.96
2023-04-11T01:15:04.097Z,9.00
2023-04-11T01:17:32.588Z,9.07
2023-04-11T01:20:00.056Z,9.06
2023-04-11T01:22:27.417Z,9.01
2023-04-11T01:24:54.049Z,8.92
2023-04-11T01:27:20.760Z,8.86
2023-04-11T01:29:47.308Z,8.96
2023-04-11T01:32:13.901Z,8.96
2023-04-11T01:34:42.175Z,8.72
2023-04-11T01:37:09.560Z,8.82
2023-04-11T01:39:36.079Z,8.82
2023-04-11T01:42:04.536Z,8.83
2023-04-11T01:44:32.467Z,8.84
2023-04-11T01:46:59.663Z,8.82
2023-04-11T01:49:26.518Z,8.86
2023-04-11T01:51:53.137Z,8.88
2023-04-11T01:54:19.699Z,8.75
2023-04-11T01:56:46.625Z,8.75
2023-04-11T01:59:13.425Z,8.54
2023-04-11T02:01:43.413Z,8.70
2023-04-11T02:04:10.646Z,8.73
2023-04-11T02:06:38.572Z,8.88
2023-04-11T02:09:05.898Z,8.75
2023-04-11T02:11:32.607Z,8.80
2023-04-11T02:13:59.846Z,8.79
2023-04-11T02:16:29.958Z,8.83
2023-04-11T02:18:57.272Z,8.80
2023-04-11T02:21:23.856Z,8.83
2023-04-11T02:23:50.398Z,8.80
2023-04-11T02:26:17.040Z,8.82
2023-04-11T02:28:43.636Z,8.84
2023-04-11T02:31:10.569Z,8.76
2023-04-11T02:33:37.313Z,8.60
2023-04-11T02:36:04.237Z,8.59
2023-04-11T02:38:30.878Z,8.65
2023-04-11T02:40:59.470Z,8.48
2023-04-11T02:43:26.149Z,8.58
2023-04-11T02:45:59.070Z,8.64
2023-04-11T02:48:32.608Z,8.73
2023-04-11T02:50:59.241Z,8.75
2023-04-11T02:53:26.149Z,8.67
2023-04-11T02:55:52.738Z,8.67
2023-04-11T02:58:20.156Z,8.61
2023-04-11T03:00:49.391Z,8.63
2023-04-11T03:03:16.045Z,8.67
2023-04-11T03:05:42.710Z,8.59
2023-04-11T03:08:09.365Z,8.58
2023-04-11T03:10:36.234Z,8.62
2023-04-11T03:13:02.794Z,8.52
2023-04-11T03:15:32.306Z,8.31
2023-04-11T03:17:58.967Z,8.54
2023-04-11T03:20:25.535Z,8.56
2023-04-11T03:22:52.140Z,8.55
2023-04-11T03:25:18.730Z,8.56
2023-04-11T03:27:45.331Z,8.57
2023-04-11T03:30:13.028Z,8.56
2023-04-11T03:32:39.681Z,8.55
2023-04-11T03:35:06.431Z,8.66
2023-04-11T03:37:33.015Z,8.70
2023-04-11T03:39:59.527Z,8.71
2023-04-11T03:42:26.317Z,8.76
2023-04-11T03:44:52.973Z,8.78
2023-04-11T03:47:19.510Z,8.69
2023-04-11T03:49:46.064Z,8.80
2023-04-11T03:52:15.124Z,8.79
2023-04-11T03:54:41.846Z,8.66
2023-04-11T03:57:09.244Z,8.87
2023-04-11T03:59:35.819Z,8.90
2023-04-11T04:02:02.550Z,8.80
2023-04-11T04:04:30.473Z,8.77
2023-04-11T04:06:57.197Z,8.73
2023-04-11T04:09:24.347Z,8.59
2023-04-11T04:11:50.947Z,8.56
2023-04-11T04:14:17.583Z,8.54
2023-04-11T04:16:44.214Z,8.60
2023-04-11T04:19:11.285Z,8.73
2023-04-11T04:21:38.106Z,8.63
2023-04-11T04:24:05.207Z,8.73
2023-04-11T04:26:32.062Z,8.69
2023-04-11T04:29:04.569Z,8.74
2023-04-11T04:31:33.968Z,8.84
2023-04-11T04:34:08.793Z,8.94
2023-04-11T04:36:49.373Z,8.79
2023-04-11T04:39:19.651Z,8.89
2023-04-11T04:41:49.852Z,8.98
2023-04-11T04:44:16.626Z,8.84
2023-04-11T04:46:43.588Z,8.88
2023-04-11T04:49:10.405Z,8.84
2023-04-11T04:51:37.343Z,8.93
2023-04-11T04:54:05.011Z,9.02
2023-04-11T04:56:31.996Z,9.03
2023-04-11T04:58:58.733Z,9.07
2023-04-11T05:01:26.968Z,9.08
2023-04-11T05:04:01.139Z,9.05
2023-04-11T05:06:29.947Z,9.17
2023-04-11T05:08:58.670Z,9.16
2023-04-11T05:11:26.082Z,9.33
2023-04-11T05:13:52.725Z,9.38
2023-04-11T05:16:20.059Z,9.33
2023-04-11T05:18:46.736Z,9.33
2023-04-11T05:21:14.392Z,9.12
2023-04-11T05:23:41.656Z,9.32
2023-04-11T05:26:09.208Z,9.30
2023-04-11T05:28:36.040Z,9.18
2023-04-11T05:31:03.141Z,9.29
2023-04-11T05:33:29.960Z,9.28
2023-04-11T05:35:56.709Z,9.40
2023-04-11T05:38:23.284Z,9.49
2023-04-11T05:40:49.858Z,9.64
2023-04-11T05:43:16.427Z,9.68
2023-04-11T05:45:47.875Z,9.72
2023-04-11T05:48:16.249Z,9.72
2023-04-11T05:50:43.102Z,9.75
2023-04-11T05:53:09.864Z,9.70
2023-04-11T05:55:37.465Z,9.76
2023-04-11T05:58:04.470Z,9.87
2023-04-11T06:00:32.383Z,9.96
2023-04-11T06:03:00.395Z,10.07
2023-04-11T06:05:31.344Z,10.24
2023-04-11T06:08:02.935Z,10.25
2023-04-11T06:10:30.684Z,10.14
2023-04-11T06:12:58.055Z,10.03
2023-04-11T06:15:25.527Z,10.16
2023-04-11T06:17:52.611Z,10.08
2023-04-11T06:20:20.470Z,10.15
2023-04-11T06:22:51.162Z,10.18
2023-04-11T06:25:21.799Z,10.26
2023-04-11T06:27:48.862Z,10.29
2023-04-11T06:30:15.621Z,10.37
2023-04-11T06:32:42.527Z,10.49
2023-04-11T06:35:09.577Z,10.53
2023-04-11T06:37:36.349Z,10.50
2023-04-11T06:40:05.402Z,10.44
2023-04-11T06:42:32.036Z,10.51
2023-04-11T06:44:58.729Z,10.59
2023-04-11T06:47:25.700Z,10.65
2023-04-11T06:49:52.310Z,10.63
2023-04-11T06:52:18.864Z,10.62
2023-04-11T06:54:47.317Z,10.71
2023-04-11T06:57:14.118Z,10.61
2023-04-11T06:59:40.661Z,10.67
2023-04-11T07:02:07.954Z,10.68
2023-04-11T07:04:34.596Z,10.74
2023-04-11T07:07:01.295Z,10.76
2023-04-11T07:09:28.048Z,10.73
2023-04-11T07:11:54.595Z,10.88
2023-04-11T07:14:21.159Z,11.03
2023-04-11T07:16:47.884Z,11.05
2023-04-11T07:19:14.450Z,11.36
2023-04-11T07:21:41.111Z,11.48
2023-04-11T07:24:07.864Z,11.81
2023-04-11T07:26:36.021Z,12.03
2023-04-11T07:29:02.718Z,12.21
2023-04-11T07:31:29.408Z,12.47
2023-04-11T07:33:56.217Z,12.56
2023-04-11T07:36:23.094Z,12.51
2023-04-11T07:38:49.813Z,12.56
2023-04-11T07:41:16.442Z,12.79
2023-04-11T07:43:43.143Z,12.84
2023-04-11T07:46:09.967Z,12.98
2023-04-11T07:48:36.701Z,13.04
2023-04-11T07:51:03.248Z,13.15
2023-04-11T07:53:32.682Z,12.96
2023-04-11T07:55:59.581Z,12.86
2023-04-11T07:58:26.219Z,12.74
2023-04-11T08:00:53.694Z,12.95
2023-04-11T08:03:21.051Z,13.07
2023-04-11T08:05:47.827Z,13.35
2023-04-11T08:08:14.367Z,13.81
2023-04-11T08:10:41.099Z,13.96
2023-04-11T08:13:07.706Z,14.41
2023-04-11T08:15:36.937Z,14.38
2023-04-11T08:18:05.962Z,14.79
2023-04-11T08:20:32.669Z,14.64
2023-04-11T08:22:59.535Z,14.65
2023-04-11T08:25:26.443Z,14.73
2023-04-11T08:27:53.130Z,14.34
2023-04-11T08:30:20.410Z,14.27
2023-04-11T08:32:47.213Z,14.42
2023-04-11T08:35:14.014Z,14.30
2023-04-11T08:37:40.764Z,14.09
2023-04-11T08:40:08.298Z,13.86
2023-04-11T08:42:35.356Z,13.74
2023-04-11T08:45:04.895Z,13.98
2023-04-11T08:47:31.675Z,14.30
2023-04-11T08:49:58.302Z,14.36
2023-04-11T08:52:25.142Z,14.28
2023-04-11T08:54:56.224Z,14.39
2023-04-11T08:57:26.321Z,14.50
2023-04-11T08:59:55.744Z,14.53
2023-04-11T09:02:22.957Z,14.37
2023-04-11T09:04:49.725Z,14.64
2023-04-11T09:07:17.082Z,14.97
2023-04-11T09:09:43.896Z,15.22
2023-04-11T09:12:11.142Z,15.17
2023-04-11T09:14:37.757Z,15.17
2023-04-11T09:17:06.505Z,15.11
2023-04-11T09:19:34.886Z,14.91
2023-04-11T09:22:06.680Z,14.72
2023-04-11T09:24:35.399Z,14.61
2023-04-11T09:27:10.059Z,14.99
2023-04-11T09:29:40.494Z,15.26
2023-04-11T09:32:07.286Z,15.47
2023-04-11T09:34:37.814Z,15.66
2023-04-11T09:37:04.689Z,15.75
2023-04-11T09:39:32.632Z,15.76
2023-04-11T09:41:59.451Z,15.84
2023-04-11T09:44:38.863Z,15.98
2023-04-11T09:47:05.740Z,16.24
2023-04-11T09:49:34.250Z,15.85
2023-04-11T09:52:01.324Z,15.89
2023-04-11T09:54:28.877Z,15.99
2023-04-11T09:56:57.240Z,15.53
2023-04-11T09:59:26.881Z,15.50
2023-04-11T10:01:53.791Z,15.13
2023-04-11T10:04:20.592Z,14.76
2023-04-11T10:07:03.802Z,14.36
2023-04-11T10:09:32.433Z,14.17
2023-04-11T10:11:59.351Z,14.15
2023-04-11T10:14:37.950Z,13.80
2023-04-11T10:17:24.292Z,13.66
2023-04-11T10:19:56.660Z,13.65
2023-04-11T10:22:50.932Z,13.76
2023-04-11T10:25:21.665Z,13.62
2023-04-11T10:28:00.868Z,13.54
2023-04-11T10:30:40.060Z,13.59
2023-04-11T10:33:19.861Z,13.81
2023-04-11T10:36:12.345Z,14.08
2023-04-11T10:38:47.184Z,14.12
2023-04-11T10:41:26.864Z,13.98
2023-04-11T10:44:21.114Z,14.10
2023-04-11T10:46:53.805Z,14.21
2023-04-11T10:49:34.842Z,14.32
2023-04-11T10:52:23.911Z,14.41
2023-04-11T10:54:52.345Z,14.53
2023-04-11T10:57:19.600Z,14.48
2023-04-11T10:59:52.270Z,14.45
2023-04-11T11:02:20.154Z,14.20
2023-04-11T11:04:47.311Z,13.99
2023-04-11T11:07:17.909Z,14.00
2023-04-11T11:09:49.420Z,14.01
2023-04-11T11:12:17.271Z,14.10
2023-04-11T11:14:46.902Z,14.23
2023-04-11T11:17:15.816Z,14.36
2023-04-11T11:19:46.254Z,14.41
2023-04-11T11:22:25.741Z,14.28
2023-04-11T11:24:52.841Z,14.28
2023-04-11T11:27:24.037Z,14.31
2023-04-11T11:29:51.902Z,14.34
2023-04-11T11:32:29.242Z,14.33
2023-04-11T11:34:57.711Z,14.42
2023-04-11T11:37:25.185Z,14.52
2023-04-11T11:39:52.241Z,14.63
2023-04-11T11:42:19.096Z,14.76
2023-04-11T11:44:46.006Z,14.75
2023-04-11T11:47:16.363Z,14.73
2023-04-11T11:49:55.509Z,14.72
2023-04-11T11:52:41.596Z,14.70
2023-04-11T11:55:29.227Z,14.76
2023-04-11T11:58:00.912Z,14.78
2023-04-11T12:00:28.953Z,14.77
2023-04-11T12:02:57.682Z,14.75
2023-04-11T12:05:30.216Z,14.80
2023-04-11T12:07:59.482Z,14.67
2023-04-11T12:10:36.724Z,14.67
2023-04-11T12:13:10.831Z,14.74
2023-04-11T12:15:37.607Z,14.64
2023-04-11T12:18:06.090Z,14.82
2023-04-11T12:20:32.874Z,15.04
2023-04-11T12:22:59.478Z,15.40
2023-04-11T12:25:27.732Z,15.63
2023-04-11T12:27:54.381Z,15.85
2023-04-11T12:30:21.129Z,16.06
2023-04-11T12:32:47.749Z,15.88
2023-04-11T12:35:14.466Z,15.89
2023-04-11T12:37:41.332Z,15.83
2023-04-11T12:40:12.527Z,15.91
2023-04-11T12:42:53.311Z,15.94
2023-04-11T12:45:22.964Z,15.86
2023-04-11T12:47:49.555Z,15.83
2023-04-11T12:50:16.206Z,15.78
2023-04-11T12:52:42.813Z,15.61
2023-04-11T12:55:09.960Z,15.44
2023-04-11T12:57:36.840Z,15.16
2023-04-11T13:00:11.670Z,15.25
2023-04-11T13:02:44.143Z,15.45
2023-04-11T13:05:14.203Z,15.73
2023-04-11T13:07:41.245Z,15.86
2023-04-11T13:10:08.605Z,15.95
2023-04-11T13:12:39.858Z,16.16
2023-04-11T13:15:08.073Z,16.03
2023-04-11T13:17:34.939Z,15.96
2023-04-11T13:20:01.714Z,16.21
2023-04-11T13:22:28.214Z,16.27
2023-04-11T13:24:54.809Z,16.31
2023-04-11T13:27:22.158Z,16.37
2023-04-11T13:29:48.735Z,16.49
2023-04-11T13:32:15.846Z,16.50
2023-04-11T13:34:42.607Z,16.52
2023-04-11T13:37:09.414Z,16.49
2023-04-11T13:39:36.309Z,16.43
2023-04-11T13:42:02.994Z,16.32
2023-04-11T13:44:29.601Z,16.49
2023-04-11T13:46:56.262Z,16.49
2023-04-11T13:49:22.822Z,16.27
2023-04-11T13:51:49.450Z,16.15
2023-04-11T13:54:16.062Z,16.14
2023-04-11T13:56:42.630Z,16.05
2023-04-11T13:59:09.264Z,16.00
2023-04-11T14:01:35.949Z,15.89
2023-04-11T14:04:02.829Z,15.88
2023-04-11T14:06:29.659Z,15.87
2023-04-11T14:08:56.268Z,15.93
2023-04-11T14:11:22.919Z,16.00
2023-04-11T14:13:49.574Z,16.04
2023-04-11T14:16:16.243Z,16.16
2023-04-11T14:18:43.087Z,16.13
2023-04-11T14:21:09.641Z,16.19
2023-04-11T14:23:36.333Z,16.19
2023-04-11T14:26:02.988Z,16.04
2023-04-11T14:28:29.563Z,16.06
2023-04-11T14:30:56.679Z,15.87
2023-04-11T14:33:23.635Z,15.85
2023-04-11T14:35:50.977Z,15.82
2023-04-11T14:38:17.474Z,15.77
2023-04-11T14:40:44.354Z,15.66
2023-04-11T14:43:11.295Z,15.63
2023-04-11T14:45:38.133Z,15.56
2023-04-11T14:48:05.497Z,15.62
2023-04-11T14:50:32.164Z,15.62
2023-04-11T14:52:58.734Z,15.49
2023-04-11T14:55:25.392Z,15.35
2023-04-11T14:57:54.184Z,15.33
2023-04-11T15:00:21.928Z,15.23
2023-04-11T15:02:51.104Z,15.16
2023-04-11T15:05:19.620Z,15.12
2023-04-11T15:07:48.044Z,14.99
2023-04-11T15:10:16.518Z,14.98
2023-04-11T15:12:43.116Z,14.94
2023-04-11T15:15:11.157Z,14.88
2023-04-11T15:17:42.548Z,14.86
2023-04-11T15:20:11.467Z,14.77
2023-04-11T15:22:41.265Z,14.74
2023-04-11T15:25:10.986Z,14.74
2023-04-11T15:27:37.855Z,14.73
2023-04-11T15:30:06.164Z,14.72
2023-04-11T15:32:33.031Z,14.60
2023-04-11T15:34:59.889Z,14.66
2023-04-11T15:37:26.616Z,14.66
2023-04-11T15:39:53.508Z,14.62
2023-04-11T15:42:20.332Z,14.65
2023-04-11T15:44:46.950Z,14.56
2023-04-11T15:47:13.721Z,14.48
2023-04-11T15:49:41.005Z,14.45
2023-04-11T15:52:07.594Z,14.48
2023-04-11T15:54:34.159Z,14.34
2023-04-11T15:57:02.422Z,14.25
2023-04-11T15:59:29.455Z,14.18
2023-04-11T16:01:56.354Z,14.09
2023-04-11T16:04:23.082Z,14.18
2023-04-11T16:06:49.736Z,14.15
2023-04-11T16:09:16.369Z,14.09
2023-04-11T16:11:43.062Z,14.08
2023-04-11T16:14:11.170Z,14.07
2023-04-11T16:16:38.065Z,13.97
2023-04-11T16:19:05.399Z,13.92
2023-04-11T16:21:31.944Z,13.96
2023-04-11T16:23:58.908Z,13.98
2023-04-11T16:26:25.633Z,13.93
2023-04-11T16:28:52.165Z,13.86
2023-04-11T16:31:24.527Z,13.77
2023-04-11T16:33:52.826Z,13.82
2023-04-11T16:36:20.470Z,13.75
2023-04-11T16:38:49.744Z,13.86
2023-04-11T16:41:17.416Z,13.85
2023-04-11T16:43:44.672Z,13.86
2023-04-11T16:46:15.539Z,13.84
2023-04-11T16:48:43.109Z,13.76
2023-04-11T16:51:13.449Z,13.69
2023-04-11T16:53:40.923Z,13.69
2023-04-11T16:56:07.477Z,13.70
2023-04-11T16:58:34.120Z,13.67
2023-04-11T17:01:01.805Z,13.63
2023-04-11T17:03:28.663Z,13.68
2023-04-11T17:05:55.474Z,13.71
2023-04-11T17:08:22.056Z,13.67
2023-04-11T17:10:48.724Z,13.61
2023-04-11T17:13:18.051Z,13.60
2023-04-11T17:15:45.645Z,13.60
2023-04-11T17:18:14.101Z,13.54
2023-04-11T17:20:41.406Z,13.48
2023-04-11T17:23:08.014Z,13.48
2023-04-11T17:25:34.848Z,13.40
2023-04-11T17:28:01.579Z,13.46
2023-04-11T17:30:29.148Z,13.44
2023-04-11T17:32:56.143Z,13.39
2023-04-11T17:35:22.806Z,13.33
2023-04-11T17:37:50.930Z,13.33
2023-04-11T17:40:18.773Z,13.34
2023-04-11T17:42:46.095Z,13.27
2023-04-11T17:45:17.550Z,13.24
2023-04-11T17:47:46.324Z,13.27
2023-04-11T17:50:13.622Z,13.24
2023-04-11T17:52:42.029Z,13.26
2023-04-11T17:55:13.331Z,13.34
2023-04-11T17:57:40.295Z,13.36
2023-04-11T18:00:22.181Z,13.26
2023-04-11T18:02:52.431Z,13.23
2023-04-11T18:05:24.588Z,13.24
2023-04-11T18:07:54.541Z,13.22
2023-04-11T18:10:22.083Z,13.24
2023-04-11T18:12:52.585Z,13.27
2023-04-11T18:15:20.332Z,13.21
2023-04-11T18:17:47.160Z,13.11
2023-04-11T18:20:15.501Z,13.18
2023-04-11T18:22:47.495Z,13.17
2023-04-11T18:25:14.217Z,13.19
2023-04-11T18:27:41.642Z,13.13
2023-04-11T18:30:12.218Z,13.11
2023-04-11T18:32:43.653Z,12.95
2023-04-11T18:35:11.868Z,13.01
2023-04-11T18:37:42.876Z,13.11
2023-04-11T18:40:12.040Z,12.99
2023-04-11T18:42:39.919Z,12.96
2023-04-11T18:45:07.120Z,12.94
2023-04-11T18:47:34.595Z,12.98
2023-04-11T18:50:01.830Z,12.96
2023-04-11T18:52:29.298Z,13.01
2023-04-11T18:54:56.456Z,12.95
2023-04-11T18:57:25.894Z,13.00
2023-04-11T18:59:56.510Z,12.97
2023-04-11T19:02:24.368Z,12.97
2023-04-11T19:04:53.376Z,12.93
2023-04-11T19:07:20.161Z,12.93
2023-04-11T19:09:47.090Z,12.99
2023-04-11T19:12:16.993Z,12.98
2023-04-11T19:14:43.873Z,12.95
2023-04-11T19:17:13.554Z,12.96
2023-04-11T19:19:40.316Z,12.89
2023-04-11T19:22:07.471Z,12.88
2023-04-11T19:24:34.045Z,12.82
2023-04-11T19:27:01.629Z,12.80
2023-04-11T19:29:28.160Z,12.82
2023-04-11T19:31:54.974Z,12.86
2023-04-11T19:34:21.654Z,12.83
2023-04-11T19:36:48.257Z,12.80
2023-04-11T19:39:14.808Z,12.78
2023-04-11T19:41:45.549Z,12.76
2023-04-11T19:44:12.442Z,12.71
2023-04-11T19:46:39.537Z,12.81
2023-04-11T19:49:06.091Z,12.81
2023-04-11T19:51:32.670Z,12.83
2023-04-11T19:53:59.562Z,12.90
2023-04-11T19:56:26.682Z,12.92
2023-04-11T19:58:53.284Z,12.96
2023-04-11T20:01:19.988Z,12.99
2023-04-11T20:03:46.802Z,13.01
2023-04-11T20:06:13.717Z,13.01
2023-04-11T20:08:40.324Z,12.95
2023-04-11T20:11:06.943Z,13.04
2023-04-11T20:13:33.996Z,13.05
2023-04-11T20:16:04.690Z,12.99
2023-04-11T20:18:31.493Z,12.97
2023-04-11T20:20:58.472Z,13.02
2023-04-11T20:23:26.021Z,12.97
2023-04-11T20:25:52.632Z,12.91
2023-04-11T20:28:19.164Z,12.89
2023-04-11T20:30:45.915Z,12.87
2023-04-11T20:33:12.553Z,12.88
2023-04-11T20:35:39.390Z,12.88
2023-04-11T20:38:05.985Z,12.88
2023-04-11T20:40:32.516Z,12.87
2023-04-11T20:43:00.949Z,12.85
2023-04-11T20:45:28.735Z,12.68
2023-04-11T20:47:56.348Z,12.59
2023-04-11T20:50:23.030Z,12.57
2023-04-11T20:52:53.016Z,12.63
2023-04-11T20:55:20.892Z,12.69
2023-04-11T20:57:47.710Z,12.63
2023-04-11T21:00:16.511Z,12.70
2023-04-11T21:02:46.216Z,12.76
2023-04-11T21:05:13.772Z,12.69
2023-04-11T21:07:41.476Z,12.70
2023-04-11T21:10:08.761Z,12.69
2023-04-11T21:12:35.825Z,12.63
2023-04-11T21:15:03.466Z,12.65
2023-04-11T21:17:35.218Z,12.59
2023-04-11T21:20:17.747Z,12.69
2023-04-11T21:22:45.232Z,12.61
2023-04-11T21:25:11.776Z,12.67
2023-04-11T21:27:38.385Z,12.73
2023-04-11T21:30:06.352Z,12.66
2023-04-11T21:32:33.100Z,12.61
2023-04-11T21:34:59.783Z,12.56
2023-04-11T21:37:26.331Z,12.60
2023-04-11T21:39:55.728Z,12.56
2023-04-11T21:42:22.266Z,12.49
2023-04-11T21:44:48.796Z,12.46
2023-04-11T21:47:15.493Z,12.31
2023-04-11T21:49:42.078Z,12.24
2023-04-11T21:52:09.233Z,12.23
2023-04-11T21:54:36.067Z,12.18
2023-04-11T21:57:02.684Z,12.12
2023-04-11T21:59:29.373Z,12.04
2023-04-11T22:01:56.374Z,12.03
2023-04-11T22:04:23.205Z,12.00
2023-04-11T22:06:49.942Z,12.01
2023-04-11T22:09:20.405Z,11.84
2023-04-11T22:11:47.011Z,11.85
2023-04-11T22:14:16.331Z,11.88
2023-04-11T22:16:48.916Z,11.80
2023-04-11T22:19:19.709Z,11.70
2023-04-11T22:21:48.726Z,11.75
2023-04-11T22:24:15.388Z,11.62
2023-04-11T22:26:42.792Z,11.64
2023-04-11T22:29:09.334Z,11.53
2023-04-11T22:31:39.069Z,11.38
2023-04-11T22:34:08.094Z,11.36
2023-04-11T22:36:37.559Z,11.28
2023-04-11T22:39:05.939Z,11.29
2023-04-11T22:41:33.406Z,11.23
2023-04-11T22:44:03.006Z,11.22
2023-04-11T22:46:31.184Z,11.26
2023-04-11T22:48:58.009Z,11.25
2023-04-11T22:51:24.927Z,11.27
2023-04-11T22:53:51.413Z,11.34
2023-04-11T22:56:18.081Z,11.30
2023-04-11T22:58:45.801Z,11.27
2023-04-11T23:01:13.955Z,11.32
2023-04-11T23:03:41.471Z,11.31
2023-04-11T23:06:08.166Z,11.31
2023-04-11T23:08:34.771Z,11.41
2023-04-11T23:11:01.351Z,11.39
2023-04-11T23:13:27.966Z,11.46
2023-04-11T23:15:54.815Z,11.44
2023-04-11T23:18:21.532Z,11.38
2023-04-11T23:20:49.419Z,11.54
2023-04-11T23:23:16.679Z,11.57
2023-04-11T23:25:43.250Z,11.54
2023-04-11T23:28:09.857Z,11.58
2023-04-11T23:30:37.454Z,11.46
2023-04-11T23:33:05.916Z,11.51
2023-04-11T23:35:34.106Z,11.54
2023-04-11T23:38:01.907Z,11.41
2023-04-11T23:40:29.748Z,11.53
2023-04-11T23:42:59.427Z,11.52
2023-04-11T23:45:26.298Z,11.46
2023-04-11T23:47:53.000Z,11.37
2023-04-11T23:50:19.879Z,11.47
2023-04-11T23:52:47.087Z,11.44
2023-04-11T23:55:13.677Z,11.47
2023-04-11T23:57:40.702Z,11.45
